sensor_id;sensor_type;location;lat;lon;timestamp;P1;durP1;ratioP1;P2;durP2;ratioP2
26780;SDS011;14366;49.184;8.054;2023-08-06T00:01:55;3.85;;;2.50;;
26780;SDS011;14366;49.184;8.054;2023-08-06T00:07:31;3.85;;;2.20;;
26780;SDS011;14366;49.184;8.054;2023-08-06T00:13:06;5.00;;;2.20;;
26780;SDS011;14366;49.184;8.054;2023-08-06T00:18:26;3.77;;;2.33;;
26780;SDS011;14366;49.184;8.054;2023-08-06T00:28:51;4.90;;;2.40;;
26780;SDS011;14366;49.184;8.054;2023-08-06T00:34:26;7.00;;;2.30;;
26780;SDS011;14366;49.184;8.054;2023-08-06T00:39:43;5.17;;;2.30;;
26780;SDS011;14366;49.184;8.054;2023-08-06T00:45:16;3.70;;;2.40;;
26780;SDS011;14366;49.184;8.054;2023-08-06T00:50:48;2.90;;;2.50;;
26780;SDS011;14366;49.184;8.054;2023-08-06T00:56:08;2.90;;;2.40;;
26780;SDS011;14366;49.184;8.054;2023-08-06T01:01:41;4.10;;;2.53;;
26780;SDS011;14366;49.184;8.054;2023-08-06T01:07:15;3.00;;;2.53;;
26780;SDS011;14366;49.184;8.054;2023-08-06T01:12:48;4.13;;;2.20;;
26780;SDS011;14366;49.184;8.054;2023-08-06T01:18:23;3.47;;;2.10;;
26780;SDS011;14366;49.184;8.054;2023-08-06T01:23:56;5.90;;;2.47;;
26780;SDS011;14366;49.184;8.054;2023-08-06T01:29:30;3.77;;;2.60;;
26780;SDS011;14366;49.184;8.054;2023-08-06T01:35:00;4.67;;;2.37;;
26780;SDS011;14366;49.184;8.054;2023-08-06T01:40:33;3.77;;;2.40;;
26780;SDS011;14366;49.184;8.054;2023-08-06T01:46:08;3.70;;;2.25;;
26780;SDS011;14366;49.184;8.054;2023-08-06T01:51:40;3.23;;;2.37;;
26780;SDS011;14366;49.184;8.054;2023-08-06T01:56:58;3.10;;;2.40;;
26780;SDS011;14366;49.184;8.054;2023-08-06T02:08:07;3.97;;;2.40;;
26780;SDS011;14366;49.184;8.054;2023-08-06T02:13:40;4.53;;;2.70;;
26780;SDS011;14366;49.184;8.054;2023-08-06T02:19:12;4.43;;;2.40;;
26780;SDS011;14366;49.184;8.054;2023-08-06T02:24:48;2.60;;;1.77;;
26780;SDS011;14366;49.184;8.054;2023-08-06T02:30:24;6.83;;;1.70;;
26780;SDS011;14366;49.184;8.054;2023-08-06T02:35:59;3.13;;;1.93;;
26780;SDS011;14366;49.184;8.054;2023-08-06T02:41:31;3.70;;;1.60;;
26780;SDS011;14366;49.184;8.054;2023-08-06T02:46:49;3.97;;;1.80;;
26780;SDS011;14366;49.184;8.054;2023-08-06T02:52:21;2.67;;;1.60;;
26780;SDS011;14366;49.184;8.054;2023-08-06T02:57:53;6.00;;;1.80;;
26780;SDS011;14366;49.184;8.054;2023-08-06T03:03:14;4.70;;;1.70;;
26780;SDS011;14366;49.184;8.054;2023-08-06T03:08:49;3.47;;;1.80;;
26780;SDS011;14366;49.184;8.054;2023-08-06T03:14:06;5.05;;;2.00;;
26780;SDS011;14366;49.184;8.054;2023-08-06T03:19:24;4.00;;;2.07;;
26780;SDS011;14366;49.184;8.054;2023-08-06T03:24:59;4.57;;;1.40;;
26780;SDS011;14366;49.184;8.054;2023-08-06T03:30:31;3.37;;;1.50;;
26780;SDS011;14366;49.184;8.054;2023-08-06T03:35:53;1.90;;;1.30;;
26780;SDS011;14366;49.184;8.054;2023-08-06T03:41:24;1.60;;;1.10;;
26780;SDS011;14366;49.184;8.054;2023-08-06T03:46:59;2.77;;;1.23;;
26780;SDS011;14366;49.184;8.054;2023-08-06T03:52:18;1.75;;;1.05;;
26780;SDS011;14366;49.184;8.054;2023-08-06T03:57:49;2.20;;;1.20;;
26780;SDS011;14366;49.184;8.054;2023-08-06T04:03:21;1.70;;;0.90;;
26780;SDS011;14366;49.184;8.054;2023-08-06T04:08:55;4.03;;;1.67;;
26780;SDS011;14366;49.184;8.054;2023-08-06T04:14:27;3.53;;;1.10;;
26780;SDS011;14366;49.184;8.054;2023-08-06T04:20:01;1.85;;;1.20;;
26780;SDS011;14366;49.184;8.054;2023-08-06T04:25:21;1.37;;;0.90;;
26780;SDS011;14366;49.184;8.054;2023-08-06T04:30:52;3.20;;;1.20;;
26780;SDS011;14366;49.184;8.054;2023-08-06T04:36:27;2.17;;;1.27;;
26780;SDS011;14366;49.184;8.054;2023-08-06T04:47:08;2.40;;;1.20;;
26780;SDS011;14366;49.184;8.054;2023-08-06T04:52:39;1.70;;;1.30;;
26780;SDS011;14366;49.184;8.054;2023-08-06T04:58:14;1.90;;;1.10;;
26780;SDS011;14366;49.184;8.054;2023-08-06T05:08:41;2.30;;;1.10;;
26780;SDS011;14366;49.184;8.054;2023-08-06T05:19:19;3.45;;;1.20;;
26780;SDS011;14366;49.184;8.054;2023-08-06T05:24:41;1.97;;;1.00;;
26780;SDS011;14366;49.184;8.054;2023-08-06T05:30:13;1.33;;;0.97;;
26780;SDS011;14366;49.184;8.054;2023-08-06T05:35:30;1.67;;;0.90;;
26780;SDS011;14366;49.184;8.054;2023-08-06T05:40:47;1.27;;;0.80;;
26780;SDS011;14366;49.184;8.054;2023-08-06T05:46:19;2.70;;;1.10;;
26780;SDS011;14366;49.184;8.054;2023-08-06T05:51:51;1.90;;;0.90;;
26780;SDS011;14366;49.184;8.054;2023-08-06T05:57:24;0.93;;;0.83;;
26780;SDS011;14366;49.184;8.054;2023-08-06T06:02:56;1.10;;;0.90;;
26780;SDS011;14366;49.184;8.054;2023-08-06T06:08:13;2.33;;;0.97;;
26780;SDS011;14366;49.184;8.054;2023-08-06T06:13:31;1.03;;;0.90;;
26780;SDS011;14366;49.184;8.054;2023-08-06T06:19:03;1.00;;;0.90;;
26780;SDS011;14366;49.184;8.054;2023-08-06T06:29:43;0.80;;;0.80;;
26780;SDS011;14366;49.184;8.054;2023-08-06T06:40:20;1.67;;;0.70;;
26780;SDS011;14366;49.184;8.054;2023-08-06T06:51:00;0.70;;;0.70;;
26780;SDS011;14366;49.184;8.054;2023-08-06T06:56:32;0.80;;;0.80;;
26780;SDS011;14366;49.184;8.054;2023-08-06T07:02:04;1.10;;;0.90;;
26780;SDS011;14366;49.184;8.054;2023-08-06T07:07:40;0.60;;;0.60;;
26780;SDS011;14366;49.184;8.054;2023-08-06T07:13:15;0.70;;;0.70;;
26780;SDS011;14366;49.184;8.054;2023-08-06T07:23:52;0.67;;;0.67;;
26780;SDS011;14366;49.184;8.054;2023-08-06T07:34:28;1.00;;;0.73;;
26780;SDS011;14366;49.184;8.054;2023-08-06T07:44:53;0.60;;;0.60;;
26780;SDS011;14366;49.184;8.054;2023-08-06T07:55:31;0.70;;;0.70;;
26780;SDS011;14366;49.184;8.054;2023-08-06T08:05:54;0.70;;;0.70;;
26780;SDS011;14366;49.184;8.054;2023-08-06T08:11:27;0.67;;;0.67;;
26780;SDS011;14366;49.184;8.054;2023-08-06T08:16:59;0.67;;;0.67;;
26780;SDS011;14366;49.184;8.054;2023-08-06T08:22:20;0.60;;;0.60;;
26780;SDS011;14366;49.184;8.054;2023-08-06T08:27:52;0.93;;;0.83;;
26780;SDS011;14366;49.184;8.054;2023-08-06T08:33:24;0.70;;;0.70;;
26780;SDS011;14366;49.184;8.054;2023-08-06T08:38:42;1.87;;;0.70;;
26780;SDS011;14366;49.184;8.054;2023-08-06T08:44:14;1.63;;;0.77;;
26780;SDS011;14366;49.184;8.054;2023-08-06T08:49:46;0.60;;;0.60;;
26780;SDS011;14366;49.184;8.054;2023-08-06T08:55:19;0.60;;;0.60;;
26780;SDS011;14366;49.184;8.054;2023-08-06T09:00:51;0.90;;;0.80;;
26780;SDS011;14366;49.184;8.054;2023-08-06T09:06:26;0.60;;;0.60;;
26780;SDS011;14366;49.184;8.054;2023-08-06T09:12:00;0.80;;;0.67;;
26780;SDS011;14366;49.184;8.054;2023-08-06T09:17:29;0.60;;;0.60;;
26780;SDS011;14366;49.184;8.054;2023-08-06T09:28:09;0.77;;;0.70;;
26780;SDS011;14366;49.184;8.054;2023-08-06T09:33:44;0.60;;;0.60;;
26780;SDS011;14366;49.184;8.054;2023-08-06T09:44:25;1.20;;;0.68;;
26780;SDS011;14366;49.184;8.054;2023-08-06T09:49:59;0.80;;;0.70;;
26780;SDS011;14366;49.184;8.054;2023-08-06T09:55:16;1.17;;;0.87;;
26780;SDS011;14366;49.184;8.054;2023-08-06T10:00:50;0.83;;;0.83;;
26780;SDS011;14366;49.184;8.054;2023-08-06T10:06:24;1.00;;;0.90;;
26780;SDS011;14366;49.184;8.054;2023-08-06T10:11:59;1.63;;;0.80;;
26780;SDS011;14366;49.184;8.054;2023-08-06T10:17:36;1.00;;;0.90;;
26780;SDS011;14366;49.184;8.054;2023-08-06T10:23:10;1.30;;;1.10;;
26780;SDS011;14366;49.184;8.054;2023-08-06T10:28:45;1.75;;;1.40;;
26780;SDS011;14366;49.184;8.054;2023-08-06T10:34:19;1.70;;;1.20;;
26780;SDS011;14366;49.184;8.054;2023-08-06T10:39:50;2.03;;;1.30;;
26780;SDS011;14366;49.184;8.054;2023-08-06T10:45:20;2.37;;;1.50;;
26780;SDS011;14366;49.184;8.054;2023-08-06T10:50:37;1.50;;;1.40;;
26780;SDS011;14366;49.184;8.054;2023-08-06T10:56:11;1.50;;;1.23;;
26780;SDS011;14366;49.184;8.054;2023-08-06T11:01:40;2.70;;;1.50;;
26780;SDS011;14366;49.184;8.054;2023-08-06T11:07:14;1.97;;;1.70;;
26780;SDS011;14366;49.184;8.054;2023-08-06T11:12:46;3.07;;;1.70;;
26780;SDS011;14366;49.184;8.054;2023-08-06T11:18:03;1.60;;;1.50;;
26780;SDS011;14366;49.184;8.054;2023-08-06T11:23:37;2.53;;;1.47;;
26780;SDS011;14366;49.184;8.054;2023-08-06T11:29:11;4.73;;;1.83;;
26780;SDS011;14366;49.184;8.054;2023-08-06T11:34:31;2.17;;;1.70;;
26780;SDS011;14366;49.184;8.054;2023-08-06T11:40:05;2.30;;;1.80;;
26780;SDS011;14366;49.184;8.054;2023-08-06T11:45:37;2.37;;;1.63;;
26780;SDS011;14366;49.184;8.054;2023-08-06T11:51:12;2.67;;;1.80;;
26780;SDS011;14366;49.184;8.054;2023-08-06T11:56:45;2.07;;;1.80;;
26780;SDS011;14366;49.184;8.054;2023-08-06T12:02:20;5.05;;;1.80;;
26780;SDS011;14366;49.184;8.054;2023-08-06T12:07:55;3.03;;;2.20;;
26780;SDS011;14366;49.184;8.054;2023-08-06T12:13:29;3.90;;;2.10;;
26780;SDS011;14366;49.184;8.054;2023-08-06T12:19:01;2.43;;;2.00;;
26780;SDS011;14366;49.184;8.054;2023-08-06T12:24:19;2.70;;;2.00;;
26780;SDS011;14366;49.184;8.054;2023-08-06T12:29:41;2.57;;;1.80;;
26780;SDS011;14366;49.184;8.054;2023-08-06T12:35:14;2.47;;;1.70;;
26780;SDS011;14366;49.184;8.054;2023-08-06T12:40:46;3.13;;;1.50;;
26780;SDS011;14366;49.184;8.054;2023-08-06T12:46:19;2.87;;;1.40;;
26780;SDS011;14366;49.184;8.054;2023-08-06T12:57:10;1.70;;;1.23;;
26780;SDS011;14366;49.184;8.054;2023-08-06T13:02:31;1.40;;;1.20;;
26780;SDS011;14366;49.184;8.054;2023-08-06T13:08:06;1.87;;;1.30;;
26780;SDS011;14366;49.184;8.054;2023-08-06T13:13:23;1.10;;;1.00;;
26780;SDS011;14366;49.184;8.054;2023-08-06T13:18:41;1.40;;;1.10;;
26780;SDS011;14366;49.184;8.054;2023-08-06T13:24:16;1.30;;;1.10;;
26780;SDS011;14366;49.184;8.054;2023-08-06T13:29:33;3.10;;;1.30;;
26780;SDS011;14366;49.184;8.054;2023-08-06T13:35:06;1.20;;;1.10;;
26780;SDS011;14366;49.184;8.054;2023-08-06T13:40:38;1.40;;;1.20;;
26780;SDS011;14366;49.184;8.054;2023-08-06T13:46:13;1.27;;;1.10;;
26780;SDS011;14366;49.184;8.054;2023-08-06T13:51:46;1.23;;;1.13;;
26780;SDS011;14366;49.184;8.054;2023-08-06T13:57:18;2.10;;;1.30;;
26780;SDS011;14366;49.184;8.054;2023-08-06T14:02:35;5.10;;;1.65;;
26780;SDS011;14366;49.184;8.054;2023-08-06T14:07:56;2.53;;;1.40;;
26780;SDS011;14366;49.184;8.054;2023-08-06T14:13:31;1.80;;;1.20;;
26780;SDS011;14366;49.184;8.054;2023-08-06T14:19:06;1.90;;;1.20;;
26780;SDS011;14366;49.184;8.054;2023-08-06T14:24:24;1.70;;;1.20;;
26780;SDS011;14366;49.184;8.054;2023-08-06T14:29:56;1.73;;;1.30;;
26780;SDS011;14366;49.184;8.054;2023-08-06T14:40:18;2.40;;;1.20;;
26780;SDS011;14366;49.184;8.054;2023-08-06T14:50:57;3.45;;;1.10;;
26780;SDS011;14366;49.184;8.054;2023-08-06T14:56:30;2.37;;;1.40;;
26780;SDS011;14366;49.184;8.054;2023-08-06T15:02:02;1.57;;;1.20;;
26780;SDS011;14366;49.184;8.054;2023-08-06T15:07:23;2.85;;;1.80;;
26780;SDS011;14366;49.184;8.054;2023-08-06T15:12:56;2.27;;;1.40;;
26780;SDS011;14366;49.184;8.054;2023-08-06T15:18:28;2.57;;;1.47;;
26780;SDS011;14366;49.184;8.054;2023-08-06T15:23:45;3.00;;;1.35;;
26780;SDS011;14366;49.184;8.054;2023-08-06T15:29:18;1.70;;;1.20;;
26780;SDS011;14366;49.184;8.054;2023-08-06T15:34:50;1.40;;;1.30;;
26780;SDS011;14366;49.184;8.054;2023-08-06T15:40:22;1.23;;;1.13;;
26780;SDS011;14366;49.184;8.054;2023-08-06T15:45:58;1.33;;;1.20;;
26780;SDS011;14366;49.184;8.054;2023-08-06T15:51:33;2.13;;;1.23;;
26780;SDS011;14366;49.184;8.054;2023-08-06T15:57:08;1.10;;;1.00;;
26780;SDS011;14366;49.184;8.054;2023-08-06T16:07:50;1.30;;;1.17;;
26780;SDS011;14366;49.184;8.054;2023-08-06T16:18:29;2.33;;;1.30;;
26780;SDS011;14366;49.184;8.054;2023-08-06T16:29:10;2.40;;;1.50;;
26780;SDS011;14366;49.184;8.054;2023-08-06T16:34:42;2.35;;;1.55;;
26780;SDS011;14366;49.184;8.054;2023-08-06T16:45:06;1.90;;;1.60;;
26780;SDS011;14366;49.184;8.054;2023-08-06T16:50:38;3.13;;;1.60;;
26780;SDS011;14366;49.184;8.054;2023-08-06T16:55:55;3.05;;;1.40;;
26780;SDS011;14366;49.184;8.054;2023-08-06T17:01:29;3.10;;;1.40;;
26780;SDS011;14366;49.184;8.054;2023-08-06T17:07:00;1.90;;;1.50;;
26780;SDS011;14366;49.184;8.054;2023-08-06T17:17:24;1.50;;;1.30;;
26780;SDS011;14366;49.184;8.054;2023-08-06T17:22:55;2.40;;;1.80;;
26780;SDS011;14366;49.184;8.054;2023-08-06T17:28:15;3.33;;;1.80;;
26780;SDS011;14366;49.184;8.054;2023-08-06T17:33:34;2.20;;;1.53;;
26780;SDS011;14366;49.184;8.054;2023-08-06T17:39:05;3.70;;;1.87;;
26780;SDS011;14366;49.184;8.054;2023-08-06T17:44:37;3.10;;;1.73;;
26780;SDS011;14366;49.184;8.054;2023-08-06T17:50:11;5.65;;;1.90;;
26780;SDS011;14366;49.184;8.054;2023-08-06T17:55:42;2.70;;;1.70;;
26780;SDS011;14366;49.184;8.054;2023-08-06T18:00:59;2.80;;;1.80;;
26780;SDS011;14366;49.184;8.054;2023-08-06T18:06:18;2.15;;;1.75;;
26780;SDS011;14366;49.184;8.054;2023-08-06T18:11:52;5.97;;;1.70;;
26780;SDS011;14366;49.184;8.054;2023-08-06T18:17:09;3.90;;;1.80;;
26780;SDS011;14366;49.184;8.054;2023-08-06T18:22:43;4.13;;;1.60;;
26780;SDS011;14366;49.184;8.054;2023-08-06T18:28:17;3.10;;;1.80;;
26780;SDS011;14366;49.184;8.054;2023-08-06T18:38:55;3.70;;;1.70;;
26780;SDS011;14366;49.184;8.054;2023-08-06T18:44:30;2.10;;;1.80;;
26780;SDS011;14366;49.184;8.054;2023-08-06T18:49:47;3.22;;;1.90;;
26780;SDS011;14366;49.184;8.054;2023-08-06T18:55:20;2.67;;;1.70;;
26780;SDS011;14366;49.184;8.054;2023-08-06T19:00:55;3.00;;;1.90;;
26780;SDS011;14366;49.184;8.054;2023-08-06T19:11:35;3.13;;;1.63;;
26780;SDS011;14366;49.184;8.054;2023-08-06T19:17:07;3.63;;;1.70;;
26780;SDS011;14366;49.184;8.054;2023-08-06T19:22:24;2.80;;;1.90;;
26780;SDS011;14366;49.184;8.054;2023-08-06T19:27:42;3.40;;;1.70;;
26780;SDS011;14366;49.184;8.054;2023-08-06T19:33:17;3.97;;;1.67;;
26780;SDS011;14366;49.184;8.054;2023-08-06T19:43:43;4.04;;;1.64;;
26780;SDS011;14366;49.184;8.054;2023-08-06T19:49:15;2.73;;;1.23;;
26780;SDS011;14366;49.184;8.054;2023-08-06T19:54:50;2.30;;;1.53;;
26780;SDS011;14366;49.184;8.054;2023-08-06T20:00:10;2.75;;;1.60;;
26780;SDS011;14366;49.184;8.054;2023-08-06T20:11:05;3.40;;;1.50;;
26780;SDS011;14366;49.184;8.054;2023-08-06T20:21:45;3.53;;;1.77;;
26780;SDS011;14366;49.184;8.054;2023-08-06T20:27:17;3.80;;;1.80;;
26780;SDS011;14366;49.184;8.054;2023-08-06T20:32:52;4.40;;;1.90;;
26780;SDS011;14366;49.184;8.054;2023-08-06T20:38:13;3.23;;;1.93;;
26780;SDS011;14366;49.184;8.054;2023-08-06T20:48:52;5.00;;;1.92;;
26780;SDS011;14366;49.184;8.054;2023-08-06T20:54:13;3.97;;;1.70;;
26780;SDS011;14366;49.184;8.054;2023-08-06T21:04:49;4.02;;;1.92;;
26780;SDS011;14366;49.184;8.054;2023-08-06T21:15:30;2.90;;;1.90;;
26780;SDS011;14366;49.184;8.054;2023-08-06T21:21:02;3.25;;;1.90;;
26780;SDS011;14366;49.184;8.054;2023-08-06T21:26:34;3.35;;;1.80;;
26780;SDS011;14366;49.184;8.054;2023-08-06T21:31:51;5.40;;;2.37;;
26780;SDS011;14366;49.184;8.054;2023-08-06T21:37:23;4.15;;;1.85;;
26780;SDS011;14366;49.184;8.054;2023-08-06T21:42:58;3.97;;;1.87;;
26780;SDS011;14366;49.184;8.054;2023-08-06T21:48:16;6.67;;;2.20;;
26780;SDS011;14366;49.184;8.054;2023-08-06T21:53:48;4.15;;;1.80;;
26780;SDS011;14366;49.184;8.054;2023-08-06T21:59:20;3.80;;;1.87;;
26780;SDS011;14366;49.184;8.054;2023-08-06T22:04:53;5.30;;;2.10;;
26780;SDS011;14366;49.184;8.054;2023-08-06T22:10:25;2.67;;;1.70;;
26780;SDS011;14366;49.184;8.054;2023-08-06T22:16:00;4.07;;;1.70;;
26780;SDS011;14366;49.184;8.054;2023-08-06T22:21:33;4.73;;;1.80;;
26780;SDS011;14366;49.184;8.054;2023-08-06T22:27:05;2.83;;;1.93;;
26780;SDS011;14366;49.184;8.054;2023-08-06T22:37:46;4.17;;;1.97;;
26780;SDS011;14366;49.184;8.054;2023-08-06T22:43:18;2.50;;;1.80;;
26780;SDS011;14366;49.184;8.054;2023-08-06T22:48:50;4.30;;;1.73;;
26780;SDS011;14366;49.184;8.054;2023-08-06T22:54:09;6.60;;;1.70;;
26780;SDS011;14366;49.184;8.054;2023-08-06T22:59:43;7.20;;;2.17;;
26780;SDS011;14366;49.184;8.054;2023-08-06T23:05:04;3.53;;;1.90;;
26780;SDS011;14366;49.184;8.054;2023-08-06T23:10:37;5.00;;;1.80;;
26780;SDS011;14366;49.184;8.054;2023-08-06T23:16:09;6.20;;;1.90;;
26780;SDS011;14366;49.184;8.054;2023-08-06T23:26:36;4.32;;;2.20;;
26780;SDS011;14366;49.184;8.054;2023-08-06T23:37:11;6.20;;;2.08;;
26780;SDS011;14366;49.184;8.054;2023-08-06T23:42:48;4.43;;;1.90;;
26780;SDS011;14366;49.184;8.054;2023-08-06T23:48:22;3.57;;;2.10;;
26780;SDS011;14366;49.184;8.054;2023-08-06T23:53:54;4.65;;;1.70;;
26780;SDS011;14366;49.184;8.054;2023-08-06T23:59:13;4.37;;;2.27;;
